Terminal Aerodrome Forecast
Issued by NWS

Home | Current Version | Previous Version | Text Only | Print | Product List | Glossary On
Versions: 1 2 3 4 5 6 7 8 9 10 11 12 13 14 15 16 17 18 19 20 21 22 23 24 25 26 27 28 29
486
FTUS43 KDLH 010732 AAB
TAFHIB
TAF AMD
KHIB 010732Z 0108/0206 14005KT 1/2SM FG OVC002
     FM011200 18005KT 2SM BR OVC006
     FM011400 20006KT 6SM BR VCSH SCT006 OVC015
     FM011600 21010G17KT 6SM -SHRA OVC020
     FM020000 29008G15KT P6SM VCSH OVC010=

USA.gov is the U.S. government's official web portal to all federal, state and local government web resources and services.